sensor_id;sensor_type;location;lat;lon;timestamp;pressure;altitude;pressure_sealevel;temperature;humidity
77323;BME280;66384;51.052;9.850;2024-01-15T00:01:11;97034.77;;;-0.85;80.45
77323;BME280;66384;51.052;9.850;2024-01-15T00:04:04;97031.59;;;-0.89;80.40
77323;BME280;66384;51.052;9.850;2024-01-15T00:06:40;97028.84;;;-0.90;80.60
77323;BME280;66384;51.052;9.850;2024-01-15T00:09:18;97011.92;;;-0.91;80.37
77323;BME280;66384;51.052;9.850;2024-01-15T00:11:54;97001.37;;;-0.94;80.22
77323;BME280;66384;51.052;9.850;2024-01-15T00:14:31;97000.44;;;-0.96;80.07
77323;BME280;66384;51.052;9.850;2024-01-15T00:17:08;96995.73;;;-0.99;79.93
77323;BME280;66384;51.052;9.850;2024-01-15T00:19:45;96999.88;;;-1.01;80.00
77323;BME280;66384;51.052;9.850;2024-01-15T00:22:21;96995.95;;;-1.02;80.01
77323;BME280;66384;51.052;9.850;2024-01-15T00:24:58;96996.17;;;-1.00;80.18
77323;BME280;66384;51.052;9.850;2024-01-15T00:27:35;96995.81;;;-1.01;80.00
77323;BME280;66384;51.052;9.850;2024-01-15T00:30:13;97000.47;;;-1.02;80.17
77323;BME280;66384;51.052;9.850;2024-01-15T00:32:50;96999.33;;;-1.02;80.18
77323;BME280;66384;51.052;9.850;2024-01-15T00:35:27;97001.77;;;-1.00;80.06
77323;BME280;66384;51.052;9.850;2024-01-15T00:38:03;97001.37;;;-1.01;80.15
77323;BME280;66384;51.052;9.850;2024-01-15T00:40:41;96996.42;;;-1.02;79.88
77323;BME280;66384;51.052;9.850;2024-01-15T00:43:17;96990.86;;;-1.02;80.09
77323;BME280;66384;51.052;9.850;2024-01-15T00:45:54;96993.48;;;-1.00;79.88
77323;BME280;66384;51.052;9.850;2024-01-15T00:48:31;96983.41;;;-0.99;79.73
77323;BME280;66384;51.052;9.850;2024-01-15T00:51:07;96982.00;;;-1.00;79.62
77323;BME280;66384;51.052;9.850;2024-01-15T00:53:44;96974.91;;;-1.00;79.53
77323;BME280;66384;51.052;9.850;2024-01-15T00:56:21;96976.56;;;-1.01;79.33
77323;BME280;66384;51.052;9.850;2024-01-15T00:58:57;96973.98;;;-1.02;79.27
77323;BME280;66384;51.052;9.850;2024-01-15T01:01:34;96974.59;;;-1.04;81.04
77323;BME280;66384;51.052;9.850;2024-01-15T01:04:11;96974.27;;;-1.07;82.03
77323;BME280;66384;51.052;9.850;2024-01-15T01:06:48;96975.45;;;-1.07;81.99
77323;BME280;66384;51.052;9.850;2024-01-15T01:09:24;96972.46;;;-1.06;81.07
77323;BME280;66384;51.052;9.850;2024-01-15T01:12:04;96965.58;;;-1.06;80.25
77323;BME280;66384;51.052;9.850;2024-01-15T01:14:40;96962.98;;;-1.07;79.74
77323;BME280;66384;51.052;9.850;2024-01-15T01:17:17;96962.06;;;-1.09;79.55
77323;BME280;66384;51.052;9.850;2024-01-15T01:19:54;96957.48;;;-1.09;79.61
77323;BME280;66384;51.052;9.850;2024-01-15T01:22:31;96960.69;;;-1.09;79.30
77323;BME280;66384;51.052;9.850;2024-01-15T01:25:08;96961.81;;;-1.11;79.70
77323;BME280;66384;51.052;9.850;2024-01-15T01:27:45;96967.00;;;-1.12;80.09
77323;BME280;66384;51.052;9.850;2024-01-15T01:30:22;96964.08;;;-1.13;80.35
77323;BME280;66384;51.052;9.850;2024-01-15T01:32:58;96961.45;;;-1.15;80.32
77323;BME280;66384;51.052;9.850;2024-01-15T01:35:35;96970.17;;;-1.16;80.22
77323;BME280;66384;51.052;9.850;2024-01-15T01:38:12;96970.38;;;-1.16;79.92
77323;BME280;66384;51.052;9.850;2024-01-15T01:40:49;96965.83;;;-1.15;79.96
77323;BME280;66384;51.052;9.850;2024-01-15T01:43:25;96972.30;;;-1.14;79.91
77323;BME280;66384;51.052;9.850;2024-01-15T01:46:03;96974.79;;;-1.11;79.97
77323;BME280;66384;51.052;9.850;2024-01-15T01:48:40;96974.41;;;-1.08;79.79
77323;BME280;66384;51.052;9.850;2024-01-15T01:51:17;96975.55;;;-1.05;79.80
77323;BME280;66384;51.052;9.850;2024-01-15T01:53:54;96967.66;;;-1.00;79.76
77323;BME280;66384;51.052;9.850;2024-01-15T01:56:31;96973.70;;;-0.97;79.83
77323;BME280;66384;51.052;9.850;2024-01-15T01:59:09;96969.11;;;-0.94;79.73
77323;BME280;66384;51.052;9.850;2024-01-15T02:01:46;96968.48;;;-0.93;79.70
77323;BME280;66384;51.052;9.850;2024-01-15T02:04:26;96967.52;;;-0.92;79.69
77323;BME280;66384;51.052;9.850;2024-01-15T02:07:05;96967.77;;;-0.89;79.35
77323;BME280;66384;51.052;9.850;2024-01-15T02:09:44;96965.14;;;-0.88;79.20
77323;BME280;66384;51.052;9.850;2024-01-15T02:12:20;96964.70;;;-0.86;79.09
77323;BME280;66384;51.052;9.850;2024-01-15T02:14:57;96960.89;;;-0.85;78.99
77323;BME280;66384;51.052;9.850;2024-01-15T02:17:34;96966.30;;;-0.84;78.86
77323;BME280;66384;51.052;9.850;2024-01-15T02:20:11;96968.03;;;-0.83;79.02
77323;BME280;66384;51.052;9.850;2024-01-15T02:22:48;96971.39;;;-0.80;79.01
77323;BME280;66384;51.052;9.850;2024-01-15T02:25:25;96968.31;;;-0.77;78.85
77323;BME280;66384;51.052;9.850;2024-01-15T02:28:01;96965.85;;;-0.75;78.77
77323;BME280;66384;51.052;9.850;2024-01-15T02:30:39;96966.40;;;-0.74;78.79
77323;BME280;66384;51.052;9.850;2024-01-15T02:33:17;96971.00;;;-0.73;78.86
77323;BME280;66384;51.052;9.850;2024-01-15T02:35:53;96973.80;;;-0.71;78.84
77323;BME280;66384;51.052;9.850;2024-01-15T02:38:30;96976.92;;;-0.69;78.67
77323;BME280;66384;51.052;9.850;2024-01-15T02:41:07;96978.69;;;-0.67;78.53
77323;BME280;66384;51.052;9.850;2024-01-15T02:43:43;96977.54;;;-0.66;78.61
77323;BME280;66384;51.052;9.850;2024-01-15T02:46:20;96973.21;;;-0.64;78.51
77323;BME280;66384;51.052;9.850;2024-01-15T02:48:56;96975.66;;;-0.63;78.32
77323;BME280;66384;51.052;9.850;2024-01-15T02:51:32;96975.42;;;-0.60;78.52
77323;BME280;66384;51.052;9.850;2024-01-15T02:54:09;96981.94;;;-0.58;78.71
77323;BME280;66384;51.052;9.850;2024-01-15T02:56:45;96989.52;;;-0.59;79.14
77323;BME280;66384;51.052;9.850;2024-01-15T02:59:22;96981.34;;;-0.60;79.05
77323;BME280;66384;51.052;9.850;2024-01-15T03:01:58;96986.71;;;-0.61;79.04
77323;BME280;66384;51.052;9.850;2024-01-15T03:04:35;96989.64;;;-0.63;79.11
77323;BME280;66384;51.052;9.850;2024-01-15T03:07:12;96987.00;;;-0.66;79.12
77323;BME280;66384;51.052;9.850;2024-01-15T03:09:48;96988.11;;;-0.68;79.09
77323;BME280;66384;51.052;9.850;2024-01-15T03:12:25;96987.88;;;-0.69;79.21
77323;BME280;66384;51.052;9.850;2024-01-15T03:15:02;96993.98;;;-0.69;79.24
77323;BME280;66384;51.052;9.850;2024-01-15T03:17:39;96994.06;;;-0.71;79.35
77323;BME280;66384;51.052;9.850;2024-01-15T03:20:17;96994.67;;;-0.72;79.53
77323;BME280;66384;51.052;9.850;2024-01-15T03:22:54;96999.55;;;-0.73;79.63
77323;BME280;66384;51.052;9.850;2024-01-15T03:25:30;96998.41;;;-0.72;79.63
77323;BME280;66384;51.052;9.850;2024-01-15T03:28:07;96998.64;;;-0.71;79.79
77323;BME280;66384;51.052;9.850;2024-01-15T03:30:44;96996.61;;;-0.71;79.79
77323;BME280;66384;51.052;9.850;2024-01-15T03:33:21;96994.13;;;-0.69;79.80
77323;BME280;66384;51.052;9.850;2024-01-15T03:35:58;96990.46;;;-0.68;79.95
77323;BME280;66384;51.052;9.850;2024-01-15T03:38:34;96991.20;;;-0.67;79.94
77323;BME280;66384;51.052;9.850;2024-01-15T03:41:15;96986.48;;;-0.66;79.95
77323;BME280;66384;51.052;9.850;2024-01-15T03:43:51;96980.77;;;-0.66;79.93
77323;BME280;66384;51.052;9.850;2024-01-15T03:46:27;96973.65;;;-0.66;79.78
77323;BME280;66384;51.052;9.850;2024-01-15T03:49:04;96977.41;;;-0.69;79.65
77323;BME280;66384;51.052;9.850;2024-01-15T03:51:41;96973.19;;;-0.73;79.67
77323;BME280;66384;51.052;9.850;2024-01-15T03:54:17;96976.37;;;-0.74;79.58
77323;BME280;66384;51.052;9.850;2024-01-15T03:56:54;96975.29;;;-0.76;79.56
77323;BME280;66384;51.052;9.850;2024-01-15T03:59:30;96965.98;;;-0.77;79.47
77323;BME280;66384;51.052;9.850;2024-01-15T04:02:07;96970.67;;;-0.77;79.46
77323;BME280;66384;51.052;9.850;2024-01-15T04:04:45;96973.31;;;-0.79;79.43
77323;BME280;66384;51.052;9.850;2024-01-15T04:07:22;96975.45;;;-0.79;79.40
77323;BME280;66384;51.052;9.850;2024-01-15T04:09:58;96973.80;;;-0.83;79.49
77323;BME280;66384;51.052;9.850;2024-01-15T04:12:36;96975.61;;;-0.84;79.50
77323;BME280;66384;51.052;9.850;2024-01-15T04:15:13;96980.38;;;-0.82;79.62
77323;BME280;66384;51.052;9.850;2024-01-15T04:17:49;96977.48;;;-0.83;79.56
77323;BME280;66384;51.052;9.850;2024-01-15T04:20:26;96976.59;;;-0.85;79.56
77323;BME280;66384;51.052;9.850;2024-01-15T04:23:03;96980.88;;;-0.87;79.49
77323;BME280;66384;51.052;9.850;2024-01-15T04:25:39;96980.70;;;-0.87;79.69
77323;BME280;66384;51.052;9.850;2024-01-15T04:28:16;96977.49;;;-0.87;79.73
77323;BME280;66384;51.052;9.850;2024-01-15T04:30:53;96976.84;;;-0.86;79.80
77323;BME280;66384;51.052;9.850;2024-01-15T04:33:29;96980.77;;;-0.86;79.81
77323;BME280;66384;51.052;9.850;2024-01-15T04:36:04;96979.55;;;-0.86;79.73
77323;BME280;66384;51.052;9.850;2024-01-15T04:38:41;96977.33;;;-0.87;79.74
77323;BME280;66384;51.052;9.850;2024-01-15T04:41:19;96979.95;;;-0.89;79.76
77323;BME280;66384;51.052;9.850;2024-01-15T04:43:55;96978.09;;;-0.89;79.74
77323;BME280;66384;51.052;9.850;2024-01-15T04:46:33;96982.13;;;-0.89;79.83
77323;BME280;66384;51.052;9.850;2024-01-15T04:49:10;96977.04;;;-0.90;79.86
77323;BME280;66384;51.052;9.850;2024-01-15T04:51:47;96969.09;;;-0.91;79.77
77323;BME280;66384;51.052;9.850;2024-01-15T04:54:23;96969.79;;;-0.89;79.88
77323;BME280;66384;51.052;9.850;2024-01-15T04:57:00;96967.00;;;-0.88;79.82
77323;BME280;66384;51.052;9.850;2024-01-15T04:59:36;96972.11;;;-0.86;79.86
77323;BME280;66384;51.052;9.850;2024-01-15T05:02:13;96965.11;;;-0.85;79.75
77323;BME280;66384;51.052;9.850;2024-01-15T05:04:49;96961.05;;;-0.85;79.55
77323;BME280;66384;51.052;9.850;2024-01-15T05:07:26;96955.88;;;-0.83;79.63
77323;BME280;66384;51.052;9.850;2024-01-15T05:10:03;96954.89;;;-0.83;79.52
77323;BME280;66384;51.052;9.850;2024-01-15T05:12:40;96951.43;;;-0.81;79.53
77323;BME280;66384;51.052;9.850;2024-01-15T05:15:17;96943.83;;;-0.81;79.51
77323;BME280;66384;51.052;9.850;2024-01-15T05:17:54;96938.98;;;-0.80;79.31
77323;BME280;66384;51.052;9.850;2024-01-15T05:20:30;96942.71;;;-0.80;79.27
77323;BME280;66384;51.052;9.850;2024-01-15T05:23:07;96939.60;;;-0.81;79.20
77323;BME280;66384;51.052;9.850;2024-01-15T05:25:44;96935.36;;;-0.82;79.45
77323;BME280;66384;51.052;9.850;2024-01-15T05:28:20;96928.96;;;-0.81;79.33
77323;BME280;66384;51.052;9.850;2024-01-15T05:30:57;96928.42;;;-0.82;79.46
77323;BME280;66384;51.052;9.850;2024-01-15T05:33:34;96930.55;;;-0.84;79.61
77323;BME280;66384;51.052;9.850;2024-01-15T05:36:11;96931.38;;;-0.84;79.68
77323;BME280;66384;51.052;9.850;2024-01-15T05:38:47;96931.61;;;-0.82;79.58
77323;BME280;66384;51.052;9.850;2024-01-15T05:41:24;96930.94;;;-0.79;79.63
77323;BME280;66384;51.052;9.850;2024-01-15T05:44:01;96934.69;;;-0.78;79.54
77323;BME280;66384;51.052;9.850;2024-01-15T05:46:37;96932.61;;;-0.75;79.49
77323;BME280;66384;51.052;9.850;2024-01-15T05:49:14;96929.63;;;-0.74;79.58
77323;BME280;66384;51.052;9.850;2024-01-15T05:51:51;96929.49;;;-0.73;79.43
77323;BME280;66384;51.052;9.850;2024-01-15T05:54:27;96931.95;;;-0.71;79.49
77323;BME280;66384;51.052;9.850;2024-01-15T05:57:04;96926.64;;;-0.69;79.45
77323;BME280;66384;51.052;9.850;2024-01-15T05:59:41;96923.80;;;-0.68;79.38
77323;BME280;66384;51.052;9.850;2024-01-15T06:02:17;96921.02;;;-0.70;79.36
77323;BME280;66384;51.052;9.850;2024-01-15T06:04:54;96917.70;;;-0.68;79.48
77323;BME280;66384;51.052;9.850;2024-01-15T06:07:31;96914.94;;;-0.66;79.38
77323;BME280;66384;51.052;9.850;2024-01-15T06:10:09;96919.20;;;-0.65;79.38
77323;BME280;66384;51.052;9.850;2024-01-15T06:12:46;96918.55;;;-0.64;79.37
77323;BME280;66384;51.052;9.850;2024-01-15T06:15:22;96914.54;;;-0.63;79.37
77323;BME280;66384;51.052;9.850;2024-01-15T06:17:59;96920.77;;;-0.63;79.21
77323;BME280;66384;51.052;9.850;2024-01-15T06:20:36;96921.56;;;-0.65;79.16
77323;BME280;66384;51.052;9.850;2024-01-15T06:23:12;96922.83;;;-0.66;79.26
77323;BME280;66384;51.052;9.850;2024-01-15T06:25:52;96918.76;;;-0.67;79.32
77323;BME280;66384;51.052;9.850;2024-01-15T06:28:29;96918.65;;;-0.70;79.46
77323;BME280;66384;51.052;9.850;2024-01-15T06:31:06;96916.06;;;-0.71;79.50
77323;BME280;66384;51.052;9.850;2024-01-15T06:33:42;96916.70;;;-0.72;79.35
77323;BME280;66384;51.052;9.850;2024-01-15T06:36:22;96912.64;;;-0.72;79.37
77323;BME280;66384;51.052;9.850;2024-01-15T06:38:58;96913.81;;;-0.73;79.42
77323;BME280;66384;51.052;9.850;2024-01-15T06:41:35;96915.21;;;-0.71;79.65
77323;BME280;66384;51.052;9.850;2024-01-15T06:44:17;96913.52;;;-0.72;79.52
77323;BME280;66384;51.052;9.850;2024-01-15T06:46:54;96912.45;;;-0.73;79.53
77323;BME280;66384;51.052;9.850;2024-01-15T06:49:36;96920.39;;;-0.73;79.65
77323;BME280;66384;51.052;9.850;2024-01-15T06:52:13;96916.83;;;-0.73;79.64
77323;BME280;66384;51.052;9.850;2024-01-15T06:54:49;96922.66;;;-0.71;79.89
77323;BME280;66384;51.052;9.850;2024-01-15T06:57:26;96923.05;;;-0.70;79.48
77323;BME280;66384;51.052;9.850;2024-01-15T07:00:03;96930.89;;;-0.72;79.39
77323;BME280;66384;51.052;9.850;2024-01-15T07:02:42;96928.36;;;-0.72;79.47
77323;BME280;66384;51.052;9.850;2024-01-15T07:05:19;96931.59;;;-0.71;79.43
77323;BME280;66384;51.052;9.850;2024-01-15T07:07:56;96937.53;;;-0.70;79.46
77323;BME280;66384;51.052;9.850;2024-01-15T07:10:33;96932.84;;;-0.70;79.41
77323;BME280;66384;51.052;9.850;2024-01-15T07:13:09;96932.05;;;-0.69;79.41
77323;BME280;66384;51.052;9.850;2024-01-15T07:15:46;96928.91;;;-0.66;79.33
77323;BME280;66384;51.052;9.850;2024-01-15T07:18:22;96928.15;;;-0.64;79.23
77323;BME280;66384;51.052;9.850;2024-01-15T07:20:59;96925.30;;;-0.64;78.99
77323;BME280;66384;51.052;9.850;2024-01-15T07:23:36;96926.66;;;-0.64;78.98
77323;BME280;66384;51.052;9.850;2024-01-15T07:26:12;96927.69;;;-0.63;79.03
77323;BME280;66384;51.052;9.850;2024-01-15T07:28:49;96932.45;;;-0.62;78.95
77323;BME280;66384;51.052;9.850;2024-01-15T07:31:26;96934.24;;;-0.60;79.14
77323;BME280;66384;51.052;9.850;2024-01-15T07:34:03;96937.20;;;-0.58;78.91
77323;BME280;66384;51.052;9.850;2024-01-15T07:36:39;96929.25;;;-0.58;78.88
77323;BME280;66384;51.052;9.850;2024-01-15T07:39:17;96930.17;;;-0.56;78.76
77323;BME280;66384;51.052;9.850;2024-01-15T07:41:56;96931.42;;;-0.55;78.75
77323;BME280;66384;51.052;9.850;2024-01-15T07:44:32;96939.96;;;-0.52;78.63
77323;BME280;66384;51.052;9.850;2024-01-15T07:47:10;96943.93;;;-0.50;78.44
77323;BME280;66384;51.052;9.850;2024-01-15T07:49:47;96942.27;;;-0.50;78.53
77323;BME280;66384;51.052;9.850;2024-01-15T07:52:23;96942.86;;;-0.48;78.55
77323;BME280;66384;51.052;9.850;2024-01-15T07:55:00;96945.91;;;-0.42;78.35
77323;BME280;66384;51.052;9.850;2024-01-15T07:57:38;96946.16;;;-0.40;78.28
77323;BME280;66384;51.052;9.850;2024-01-15T08:00:17;96940.51;;;-0.39;78.20
77323;BME280;66384;51.052;9.850;2024-01-15T08:02:54;96951.92;;;-0.36;78.02
77323;BME280;66384;51.052;9.850;2024-01-15T08:05:31;96951.16;;;-0.34;77.76
77323;BME280;66384;51.052;9.850;2024-01-15T08:08:08;96948.45;;;-0.34;77.98
77323;BME280;66384;51.052;9.850;2024-01-15T08:10:44;96948.80;;;-0.34;77.76
77323;BME280;66384;51.052;9.850;2024-01-15T08:13:21;96948.31;;;-0.33;77.84
77323;BME280;66384;51.052;9.850;2024-01-15T08:15:57;96946.02;;;-0.32;77.78
77323;BME280;66384;51.052;9.850;2024-01-15T08:18:35;96940.58;;;-0.28;77.94
77323;BME280;66384;51.052;9.850;2024-01-15T08:21:12;96941.95;;;-0.24;77.84
77323;BME280;66384;51.052;9.850;2024-01-15T08:23:49;96939.45;;;-0.23;77.70
77323;BME280;66384;51.052;9.850;2024-01-15T08:26:25;96936.70;;;-0.19;77.77
77323;BME280;66384;51.052;9.850;2024-01-15T08:29:02;96936.01;;;-0.16;77.56
77323;BME280;66384;51.052;9.850;2024-01-15T08:31:38;96934.92;;;-0.13;77.72
77323;BME280;66384;51.052;9.850;2024-01-15T08:34:15;96934.02;;;-0.11;77.37
77323;BME280;66384;51.052;9.850;2024-01-15T08:36:53;96936.09;;;-0.09;77.24
77323;BME280;66384;51.052;9.850;2024-01-15T08:39:30;96937.86;;;-0.07;77.41
77323;BME280;66384;51.052;9.850;2024-01-15T08:42:07;96932.39;;;-0.04;77.36
77323;BME280;66384;51.052;9.850;2024-01-15T08:44:44;96932.27;;;-0.03;77.12
77323;BME280;66384;51.052;9.850;2024-01-15T08:47:21;96922.68;;;-0.02;77.05
77323;BME280;66384;51.052;9.850;2024-01-15T08:49:58;96928.13;;;-0.02;76.90
77323;BME280;66384;51.052;9.850;2024-01-15T08:52:35;96924.90;;;-0.02;76.79
77323;BME280;66384;51.052;9.850;2024-01-15T08:55:12;96923.73;;;-0.01;76.94
77323;BME280;66384;51.052;9.850;2024-01-15T08:57:49;96926.79;;;-0.01;76.89
77323;BME280;66384;51.052;9.850;2024-01-15T09:00:26;96928.92;;;0.02;77.11
77323;BME280;66384;51.052;9.850;2024-01-15T09:03:03;96926.30;;;0.04;76.88
77323;BME280;66384;51.052;9.850;2024-01-15T09:05:42;96928.63;;;0.03;76.65
77323;BME280;66384;51.052;9.850;2024-01-15T09:08:19;96928.01;;;0.05;76.60
77323;BME280;66384;51.052;9.850;2024-01-15T09:10:56;96925.08;;;0.08;76.51
77323;BME280;66384;51.052;9.850;2024-01-15T09:13:32;96927.09;;;0.16;76.34
77323;BME280;66384;51.052;9.850;2024-01-15T09:16:09;96927.27;;;0.21;76.35
77323;BME280;66384;51.052;9.850;2024-01-15T09:18:46;96926.61;;;0.26;76.00
77323;BME280;66384;51.052;9.850;2024-01-15T09:21:23;96927.92;;;0.30;76.12
77323;BME280;66384;51.052;9.850;2024-01-15T09:24:00;96927.79;;;0.34;76.05
77323;BME280;66384;51.052;9.850;2024-01-15T09:26:37;96925.09;;;0.40;75.75
77323;BME280;66384;51.052;9.850;2024-01-15T09:29:13;96924.94;;;0.44;75.53
77323;BME280;66384;51.052;9.850;2024-01-15T09:31:51;96925.33;;;0.46;75.26
77323;BME280;66384;51.052;9.850;2024-01-15T09:34:28;96924.97;;;0.45;75.02
77323;BME280;66384;51.052;9.850;2024-01-15T09:37:05;96929.38;;;0.46;75.20
77323;BME280;66384;51.052;9.850;2024-01-15T09:39:46;96926.92;;;0.48;75.30
77323;BME280;66384;51.052;9.850;2024-01-15T09:42:24;96929.23;;;0.51;75.18
77323;BME280;66384;51.052;9.850;2024-01-15T09:45:01;96927.06;;;0.52;75.15
77323;BME280;66384;51.052;9.850;2024-01-15T09:47:39;96923.13;;;0.51;74.90
77323;BME280;66384;51.052;9.850;2024-01-15T09:50:19;96928.83;;;0.50;74.77
77323;BME280;66384;51.052;9.850;2024-01-15T09:52:56;96922.84;;;0.48;74.98
77323;BME280;66384;51.052;9.850;2024-01-15T09:55:34;96924.60;;;0.50;75.21
77323;BME280;66384;51.052;9.850;2024-01-15T09:58:12;96926.91;;;0.52;75.06
77323;BME280;66384;51.052;9.850;2024-01-15T10:00:50;96925.27;;;0.54;74.88
77323;BME280;66384;51.052;9.850;2024-01-15T10:03:27;96924.52;;;0.56;74.93
77323;BME280;66384;51.052;9.850;2024-01-15T10:06:04;96929.25;;;0.61;74.89
77323;BME280;66384;51.052;9.850;2024-01-15T10:08:42;96929.45;;;0.62;74.55
77323;BME280;66384;51.052;9.850;2024-01-15T10:11:20;96926.37;;;0.61;74.57
77323;BME280;66384;51.052;9.850;2024-01-15T10:13:57;96920.69;;;0.62;74.78
77323;BME280;66384;51.052;9.850;2024-01-15T10:16:33;96915.33;;;0.64;74.48
77323;BME280;66384;51.052;9.850;2024-01-15T10:19:10;96921.22;;;0.63;74.24
77323;BME280;66384;51.052;9.850;2024-01-15T10:21:47;96914.36;;;0.61;74.33
77323;BME280;66384;51.052;9.850;2024-01-15T10:24:23;96912.79;;;0.59;74.27
77323;BME280;66384;51.052;9.850;2024-01-15T10:27:10;96907.40;;;0.60;74.49
77323;BME280;66384;51.052;9.850;2024-01-15T10:29:46;96910.00;;;0.62;74.60
77323;BME280;66384;51.052;9.850;2024-01-15T10:32:22;96906.92;;;0.61;74.56
77323;BME280;66384;51.052;9.850;2024-01-15T10:34:59;96902.18;;;0.60;74.59
77323;BME280;66384;51.052;9.850;2024-01-15T10:37:38;96904.66;;;0.59;74.54
77323;BME280;66384;51.052;9.850;2024-01-15T10:40:15;96899.48;;;0.56;74.72
77323;BME280;66384;51.052;9.850;2024-01-15T10:42:52;96896.20;;;0.59;74.84
77323;BME280;66384;51.052;9.850;2024-01-15T10:45:29;96895.48;;;0.62;74.62
77323;BME280;66384;51.052;9.850;2024-01-15T10:48:13;96892.06;;;0.66;74.41
77323;BME280;66384;51.052;9.850;2024-01-15T10:50:55;96883.22;;;0.70;74.57
77323;BME280;66384;51.052;9.850;2024-01-15T10:53:33;96878.20;;;0.71;74.69
77323;BME280;66384;51.052;9.850;2024-01-15T10:56:12;96882.30;;;0.73;74.55
77323;BME280;66384;51.052;9.850;2024-01-15T10:58:49;96881.93;;;0.72;74.62
77323;BME280;66384;51.052;9.850;2024-01-15T11:01:30;96884.40;;;0.70;75.05
77323;BME280;66384;51.052;9.850;2024-01-15T11:04:08;96886.11;;;0.66;75.12
77323;BME280;66384;51.052;9.850;2024-01-15T11:06:49;96884.27;;;0.61;75.31
77323;BME280;66384;51.052;9.850;2024-01-15T11:09:28;96879.48;;;0.60;75.37
77323;BME280;66384;51.052;9.850;2024-01-15T11:12:13;96873.98;;;0.57;75.05
77323;BME280;66384;51.052;9.850;2024-01-15T11:14:51;96867.29;;;0.55;75.40
77323;BME280;66384;51.052;9.850;2024-01-15T11:18:02;96861.45;;;0.52;75.50
77323;BME280;66384;51.052;9.850;2024-01-15T11:20:40;96854.85;;;0.52;75.52
77323;BME280;66384;51.052;9.850;2024-01-15T11:23:50;96849.02;;;0.55;75.63
77323;BME280;66384;51.052;9.850;2024-01-15T11:26:46;96851.09;;;0.61;75.56
77323;BME280;66384;51.052;9.850;2024-01-15T11:29:34;96854.63;;;0.65;75.76
77323;BME280;66384;51.052;9.850;2024-01-15T11:32:11;96856.21;;;0.66;75.93
77323;BME280;66384;51.052;9.850;2024-01-15T11:35:01;96849.14;;;0.63;75.66
77323;BME280;66384;51.052;9.850;2024-01-15T11:38:01;96851.39;;;0.59;75.70
77323;BME280;66384;51.052;9.850;2024-01-15T11:40:42;96849.80;;;0.58;75.96
77323;BME280;66384;51.052;9.850;2024-01-15T11:43:21;96844.73;;;0.57;75.89
77323;BME280;66384;51.052;9.850;2024-01-15T11:45:56;96846.79;;;0.58;76.22
77323;BME280;66384;51.052;9.850;2024-01-15T11:48:42;96845.31;;;0.60;76.22
77323;BME280;66384;51.052;9.850;2024-01-15T11:51:21;96839.43;;;0.61;76.47
77323;BME280;66384;51.052;9.850;2024-01-15T11:54:00;96842.88;;;0.63;76.70
77323;BME280;66384;51.052;9.850;2024-01-15T11:56:40;96840.97;;;0.62;76.86
77323;BME280;66384;51.052;9.850;2024-01-15T11:59:17;96843.42;;;0.59;77.14
77323;BME280;66384;51.052;9.850;2024-01-15T12:01:55;96841.76;;;0.55;77.54
77323;BME280;66384;51.052;9.850;2024-01-15T12:04:32;96838.20;;;0.50;78.18
77323;BME280;66384;51.052;9.850;2024-01-15T12:07:10;96833.69;;;0.46;78.63
77323;BME280;66384;51.052;9.850;2024-01-15T12:09:48;96830.52;;;0.48;78.92
77323;BME280;66384;51.052;9.850;2024-01-15T12:12:27;96830.89;;;0.49;79.14
77323;BME280;66384;51.052;9.850;2024-01-15T12:15:06;96832.05;;;0.48;78.85
77323;BME280;66384;51.052;9.850;2024-01-15T12:17:43;96829.54;;;0.49;78.96
77323;BME280;66384;51.052;9.850;2024-01-15T12:20:22;96828.54;;;0.50;79.00
77323;BME280;66384;51.052;9.850;2024-01-15T12:22:59;96827.34;;;0.49;79.09
77323;BME280;66384;51.052;9.850;2024-01-15T12:25:40;96827.84;;;0.49;79.23
77323;BME280;66384;51.052;9.850;2024-01-15T12:28:18;96829.58;;;0.51;79.27
77323;BME280;66384;51.052;9.850;2024-01-15T12:30:56;96826.61;;;0.52;79.30
77323;BME280;66384;51.052;9.850;2024-01-15T12:33:34;96832.30;;;0.55;79.34
77323;BME280;66384;51.052;9.850;2024-01-15T12:36:11;96831.89;;;0.59;79.30
77323;BME280;66384;51.052;9.850;2024-01-15T12:38:49;96833.51;;;0.61;79.19
77323;BME280;66384;51.052;9.850;2024-01-15T12:41:26;96832.11;;;0.60;79.11
77323;BME280;66384;51.052;9.850;2024-01-15T12:44:02;96835.02;;;0.60;79.44
77323;BME280;66384;51.052;9.850;2024-01-15T12:46:39;96827.67;;;0.63;79.45
77323;BME280;66384;51.052;9.850;2024-01-15T12:49:18;96829.09;;;0.65;79.27
77323;BME280;66384;51.052;9.850;2024-01-15T12:51:59;96828.66;;;0.67;79.00
77323;BME280;66384;51.052;9.850;2024-01-15T12:54:36;96828.54;;;0.69;79.05
77323;BME280;66384;51.052;9.850;2024-01-15T12:57:13;96830.46;;;0.71;78.68
77323;BME280;66384;51.052;9.850;2024-01-15T12:59:49;96835.17;;;0.75;78.98
77323;BME280;66384;51.052;9.850;2024-01-15T13:02:26;96834.41;;;0.77;78.42
77323;BME280;66384;51.052;9.850;2024-01-15T13:05:04;96837.98;;;0.78;78.34
77323;BME280;66384;51.052;9.850;2024-01-15T13:07:41;96840.59;;;0.80;78.33
77323;BME280;66384;51.052;9.850;2024-01-15T13:10:18;96841.56;;;0.79;77.92
77323;BME280;66384;51.052;9.850;2024-01-15T13:12:58;96841.70;;;0.78;78.31
77323;BME280;66384;51.052;9.850;2024-01-15T13:15:35;96841.50;;;0.77;78.25
77323;BME280;66384;51.052;9.850;2024-01-15T13:18:12;96846.88;;;0.76;78.22
77323;BME280;66384;51.052;9.850;2024-01-15T13:20:49;96853.10;;;0.75;78.28
77323;BME280;66384;51.052;9.850;2024-01-15T13:23:25;96846.60;;;0.73;78.64
77323;BME280;66384;51.052;9.850;2024-01-15T13:26:02;96849.52;;;0.74;78.96
77323;BME280;66384;51.052;9.850;2024-01-15T13:28:38;96847.79;;;0.78;78.70
77323;BME280;66384;51.052;9.850;2024-01-15T13:31:15;96849.56;;;0.80;78.09
77323;BME280;66384;51.052;9.850;2024-01-15T13:33:52;96848.45;;;0.82;78.06
77323;BME280;66384;51.052;9.850;2024-01-15T13:36:26;96846.71;;;0.85;78.02
77323;BME280;66384;51.052;9.850;2024-01-15T13:39:03;96848.14;;;0.88;77.73
77323;BME280;66384;51.052;9.850;2024-01-15T13:41:42;96840.63;;;0.91;77.57
77323;BME280;66384;51.052;9.850;2024-01-15T13:44:18;96843.80;;;0.95;77.56
77323;BME280;66384;51.052;9.850;2024-01-15T13:46:57;96842.70;;;0.97;76.89
77323;BME280;66384;51.052;9.850;2024-01-15T13:49:34;96840.04;;;0.99;76.83
77323;BME280;66384;51.052;9.850;2024-01-15T13:52:12;96841.16;;;1.02;76.65
77323;BME280;66384;51.052;9.850;2024-01-15T13:54:49;96837.20;;;1.05;75.74
77323;BME280;66384;51.052;9.850;2024-01-15T13:57:25;96842.30;;;1.06;75.77
77323;BME280;66384;51.052;9.850;2024-01-15T14:00:02;96835.82;;;1.04;75.61